createdAt,value
2022-08-27T00:01:00.859Z,24.95
2022-08-27T00:03:31.732Z,24.98
2022-08-27T00:06:01.451Z,24.74
2022-08-27T00:10:57.650Z,24.79
2022-08-27T00:13:28.504Z,24.98
2022-08-27T00:15:57.677Z,26.19
2022-08-27T00:18:27.185Z,25.20
2022-08-27T00:20:56.573Z,25.37
2022-08-27T00:23:26.208Z,26.13
2022-08-27T00:25:56.613Z,26.53
2022-08-27T00:28:30.471Z,25.82
2022-08-27T00:31:00.401Z,24.37
2022-08-27T00:33:31.954Z,24.94
2022-08-27T00:36:01.597Z,24.46
2022-08-27T00:38:31.853Z,24.85
2022-08-27T00:41:01.567Z,25.28
2022-08-27T00:43:44.395Z,24.02
2022-08-27T00:46:21.295Z,26.39
2022-08-27T00:48:55.740Z,26.26
2022-08-27T00:51:26.086Z,26.36
2022-08-27T00:53:56.180Z,27.50
2022-08-27T00:56:29.187Z,28.10
2022-08-27T00:58:59.902Z,27.22
2022-08-27T01:01:33.805Z,27.07
2022-08-27T01:04:07.396Z,27.99
2022-08-27T01:06:39.107Z,26.67
2022-08-27T01:09:16.890Z,28.86
2022-08-27T01:11:49.781Z,28.33
2022-08-27T01:14:21.159Z,28.23
2022-08-27T01:16:51.416Z,27.29
2022-08-27T01:19:29.132Z,27.89
2022-08-27T01:22:07.422Z,27.88
2022-08-27T01:24:42.542Z,28.87
2022-08-27T01:27:19.967Z,28.51
2022-08-27T01:29:49.595Z,29.50
2022-08-27T01:32:23.786Z,29.66
2022-08-27T01:34:53.318Z,28.64
2022-08-27T01:37:24.647Z,28.99
2022-08-27T01:39:59.332Z,28.42
2022-08-27T01:42:32.390Z,29.25
2022-08-27T01:45:05.683Z,29.67
2022-08-27T01:47:37.588Z,30.52
2022-08-27T01:50:08.241Z,29.20
2022-08-27T01:52:38.376Z,30.91
2022-08-27T01:55:13.116Z,29.73
2022-08-27T01:57:43.467Z,29.70
2022-08-27T02:00:16.477Z,30.49
2022-08-27T02:02:46.753Z,30.50
2022-08-27T02:05:17.139Z,31.04
2022-08-27T02:07:46.860Z,31.38
2022-08-27T02:10:23.838Z,31.24
2022-08-27T02:12:55.095Z,31.13
2022-08-27T02:15:25.342Z,31.75
2022-08-27T02:17:55.411Z,30.80
2022-08-27T02:20:27.914Z,31.90
2022-08-27T02:22:59.253Z,30.28
2022-08-27T02:25:30.154Z,30.39
2022-08-27T02:28:01.430Z,31.67
2022-08-27T02:30:33.043Z,30.96
2022-08-27T02:33:02.853Z,30.63
2022-08-27T02:35:33.891Z,31.48
2022-08-27T02:38:03.527Z,31.43
2022-08-27T02:40:34.470Z,31.63
2022-08-27T02:43:04.081Z,30.45
2022-08-27T02:45:33.647Z,31.40
2022-08-27T02:48:05.871Z,32.66
2022-08-27T02:50:35.844Z,31.39
2022-08-27T02:53:06.572Z,30.33
2022-08-27T02:55:37.485Z,29.59
2022-08-27T02:58:06.892Z,30.80
2022-08-27T03:00:37.175Z,30.92
2022-08-27T03:03:07.526Z,31.35
2022-08-27T03:05:38.771Z,31.67
2022-08-27T03:08:08.312Z,31.23
2022-08-27T03:10:40.340Z,30.34
2022-08-27T03:13:10.973Z,30.28
2022-08-27T03:15:40.510Z,31.25
2022-08-27T03:18:21.955Z,30.49
2022-08-27T03:20:53.083Z,29.33
2022-08-27T03:23:25.003Z,30.13
2022-08-27T03:25:57.755Z,31.49
2022-08-27T03:28:30.806Z,30.08
2022-08-27T03:31:02.500Z,32.05
2022-08-27T03:33:33.599Z,30.87
2022-08-27T03:36:02.895Z,32.51
2022-08-27T03:38:33.177Z,32.51
2022-08-27T03:41:05.482Z,31.87
2022-08-27T03:43:35.837Z,32.06
2022-08-27T03:46:05.341Z,31.89
2022-08-27T03:48:35.508Z,32.62
2022-08-27T03:51:08.409Z,31.74
2022-08-27T03:53:40.898Z,32.16
2022-08-27T03:56:12.760Z,33.01
2022-08-27T03:58:42.635Z,32.31
2022-08-27T04:01:12.484Z,32.77
2022-08-27T04:03:42.307Z,32.95
2022-08-27T04:06:14.719Z,32.96
2022-08-27T04:08:44.303Z,33.49
2022-08-27T04:11:15.207Z,33.16
2022-08-27T04:13:44.643Z,32.60
2022-08-27T04:16:13.901Z,32.42
2022-08-27T04:18:44.537Z,32.14
2022-08-27T04:21:15.739Z,31.68
2022-08-27T04:23:46.358Z,30.74
2022-08-27T04:26:18.643Z,31.81
2022-08-27T04:28:49.379Z,31.77
2022-08-27T04:31:20.331Z,31.43
2022-08-27T04:33:50.670Z,30.45
2022-08-27T04:36:22.031Z,31.55
2022-08-27T04:38:51.380Z,31.08
2022-08-27T04:41:23.435Z,30.64
2022-08-27T04:43:54.007Z,30.91
2022-08-27T04:46:26.198Z,30.22
2022-08-27T04:48:56.915Z,28.78
2022-08-27T04:51:27.107Z,28.02
2022-08-27T04:53:56.875Z,28.78
2022-08-27T04:56:32.738Z,29.25
2022-08-27T04:59:03.994Z,27.56
2022-08-27T05:01:33.407Z,27.01
2022-08-27T05:04:03.240Z,26.15
2022-08-27T05:06:32.391Z,26.19
2022-08-27T05:09:02.064Z,26.05
2022-08-27T05:11:34.953Z,26.16
2022-08-27T05:14:05.175Z,25.11
2022-08-27T05:16:36.590Z,25.38
2022-08-27T05:19:14.859Z,25.42
2022-08-27T05:21:48.404Z,25.43
2022-08-27T05:24:19.053Z,25.12
2022-08-27T05:29:16.999Z,25.51
2022-08-27T05:31:48.705Z,26.37
2022-08-27T05:34:25.735Z,25.65
2022-08-27T05:36:57.840Z,25.54
2022-08-27T05:39:27.608Z,25.70
2022-08-27T05:41:59.285Z,26.75
2022-08-27T05:44:40.999Z,26.33
2022-08-27T05:47:12.033Z,26.36
2022-08-27T05:49:41.917Z,26.89
2022-08-27T05:52:12.992Z,27.43
2022-08-27T05:54:42.117Z,28.18
2022-08-27T05:57:11.455Z,26.89
2022-08-27T06:00:01.511Z,28.26
2022-08-27T06:02:37.412Z,27.79
2022-08-27T06:05:11.038Z,28.26
2022-08-27T06:07:41.067Z,29.03
2022-08-27T06:10:12.465Z,28.60
2022-08-27T06:12:41.838Z,28.85
2022-08-27T06:15:13.314Z,29.05
2022-08-27T06:17:43.332Z,28.87
2022-08-27T06:20:12.371Z,28.04
2022-08-27T06:22:41.796Z,27.62
2022-08-27T06:25:12.276Z,27.84
2022-08-27T06:27:41.759Z,27.37
2022-08-27T06:30:17.427Z,27.29
2022-08-27T06:32:47.656Z,27.17
2022-08-27T06:35:17.575Z,26.02
2022-08-27T06:37:48.102Z,25.25
2022-08-27T06:40:18.280Z,24.76
2022-08-27T06:42:47.890Z,23.75
2022-08-27T06:45:19.344Z,23.12
2022-08-27T06:47:49.312Z,22.51
2022-08-27T06:50:24.241Z,22.64
2022-08-27T06:52:57.216Z,22.41
2022-08-27T06:55:28.365Z,22.68
2022-08-27T06:57:57.799Z,21.40
2022-08-27T07:00:28.601Z,20.65
2022-08-27T07:02:58.300Z,19.85
2022-08-27T07:05:29.119Z,19.19
2022-08-27T07:07:59.108Z,19.45
2022-08-27T07:10:29.936Z,19.05
2022-08-27T07:12:59.509Z,18.69
2022-08-27T07:15:30.847Z,18.61
2022-08-27T07:18:02.684Z,18.39
2022-08-27T07:20:35.333Z,18.34
2022-08-27T07:23:07.381Z,17.11
2022-08-27T07:25:43.416Z,16.19
2022-08-27T07:28:15.020Z,16.96
2022-08-27T07:30:48.136Z,17.09
2022-08-27T07:33:18.020Z,18.11
2022-08-27T07:35:52.454Z,17.78
2022-08-27T07:38:23.149Z,16.81
2022-08-27T07:40:56.144Z,16.67
2022-08-27T07:43:45.222Z,17.16
2022-08-27T07:46:16.903Z,16.43
2022-08-27T07:48:46.309Z,16.98
2022-08-27T07:51:18.227Z,16.85
2022-08-27T07:53:49.835Z,17.23
2022-08-27T07:56:22.124Z,17.35
2022-08-27T07:58:53.854Z,17.56
2022-08-27T08:03:56.043Z,16.95
2022-08-27T08:06:26.560Z,15.70
2022-08-27T08:08:56.742Z,15.59
2022-08-27T08:11:26.427Z,15.25
2022-08-27T08:13:56.382Z,15.25
2022-08-27T08:16:31.901Z,14.92
2022-08-27T08:19:03.835Z,14.39
2022-08-27T08:21:33.748Z,13.79
2022-08-27T08:24:05.575Z,13.34
2022-08-27T08:26:37.343Z,13.13
2022-08-27T08:29:13.304Z,13.26
2022-08-27T08:31:49.953Z,12.79
2022-08-27T08:34:22.784Z,12.07
2022-08-27T08:36:55.155Z,12.33
2022-08-27T08:39:26.100Z,12.53
2022-08-27T08:41:57.916Z,12.12
2022-08-27T08:44:32.828Z,11.49
2022-08-27T08:47:07.289Z,11.30
2022-08-27T08:49:51.004Z,10.85
2022-08-27T08:52:34.520Z,11.69
2022-08-27T08:55:16.811Z,12.31
2022-08-27T08:57:55.234Z,11.84
2022-08-27T09:00:25.530Z,11.74
2022-08-27T09:02:56.330Z,11.64
2022-08-27T09:05:28.454Z,11.99
2022-08-27T09:08:28.903Z,12.09
2022-08-27T09:11:07.197Z,12.56
2022-08-27T09:13:42.093Z,11.98
2022-08-27T09:16:12.593Z,12.25
2022-08-27T09:18:45.362Z,11.71
2022-08-27T09:21:28.601Z,12.42
2022-08-27T09:24:06.635Z,13.04
2022-08-27T09:26:39.797Z,13.98
2022-08-27T09:29:20.425Z,13.09
2022-08-27T09:31:56.183Z,12.58
2022-08-27T09:34:26.253Z,12.32
2022-08-27T09:37:03.278Z,11.99
2022-08-27T09:39:43.314Z,11.28
2022-08-27T09:42:29.207Z,11.21
2022-08-27T09:45:00.163Z,11.55
2022-08-27T09:47:30.085Z,11.56
2022-08-27T09:50:09.879Z,11.40
2022-08-27T09:52:51.714Z,11.20
2022-08-27T09:55:37.217Z,11.04
2022-08-27T09:58:08.583Z,11.12
2022-08-27T10:00:40.508Z,11.65
2022-08-27T10:03:13.892Z,11.75
2022-08-27T10:05:50.916Z,11.86
2022-08-27T10:08:28.577Z,10.78
2022-08-27T10:11:01.123Z,11.06
2022-08-27T10:13:34.966Z,10.59
2022-08-27T10:16:20.745Z,11.79
2022-08-27T10:19:00.087Z,12.30
2022-08-27T10:21:37.624Z,11.86
2022-08-27T10:24:23.617Z,12.68
2022-08-27T10:27:04.987Z,13.00
2022-08-27T10:29:42.754Z,12.52
2022-08-27T10:32:26.336Z,12.12
2022-08-27T10:35:07.222Z,12.76
2022-08-27T10:37:45.766Z,13.17
2022-08-27T10:40:23.954Z,13.23
2022-08-27T10:43:08.170Z,13.04
2022-08-27T10:45:47.765Z,12.40
2022-08-27T10:48:27.395Z,12.70
2022-08-27T10:51:05.456Z,12.17
2022-08-27T10:53:44.310Z,11.91
2022-08-27T10:56:23.500Z,12.40
2022-08-27T10:59:11.613Z,12.21
2022-08-27T11:01:49.155Z,12.39
2022-08-27T11:04:24.879Z,12.72
2022-08-27T11:06:59.385Z,13.33
2022-08-27T11:09:37.671Z,14.06
2022-08-27T11:12:14.662Z,14.93
2022-08-27T11:14:52.752Z,15.75
2022-08-27T11:17:32.218Z,16.17
2022-08-27T11:20:09.814Z,16.19
2022-08-27T11:22:44.292Z,15.27
2022-08-27T11:25:32.360Z,15.19
2022-08-27T11:28:08.201Z,15.08
2022-08-27T11:30:47.388Z,14.60
2022-08-27T11:33:22.687Z,13.79
2022-08-27T11:36:18.122Z,12.86
2022-08-27T11:38:55.617Z,12.79
2022-08-27T11:41:44.718Z,13.17
2022-08-27T11:44:17.755Z,12.52
2022-08-27T11:46:49.693Z,12.90
2022-08-27T11:49:28.983Z,13.45
2022-08-27T11:52:03.461Z,13.56
2022-08-27T11:54:46.162Z,14.23
2022-08-27T11:57:31.079Z,13.93
2022-08-27T12:00:17.589Z,13.01
2022-08-27T12:02:58.656Z,13.79
2022-08-27T12:05:48.644Z,13.23
2022-08-27T12:08:29.277Z,13.23
2022-08-27T12:11:21.342Z,13.14
2022-08-27T12:14:00.340Z,14.01
2022-08-27T12:16:42.286Z,14.12
2022-08-27T12:19:35.560Z,14.11
2022-08-27T12:22:17.304Z,14.63
2022-08-27T12:24:55.648Z,14.70
2022-08-27T12:27:34.744Z,14.77
2022-08-27T12:30:10.845Z,14.81
2022-08-27T12:32:55.312Z,15.40
2022-08-27T12:35:35.288Z,15.72
2022-08-27T12:38:17.598Z,15.22
2022-08-27T12:40:50.992Z,15.65
2022-08-27T12:43:23.411Z,15.89
2022-08-27T12:45:55.628Z,16.06
2022-08-27T12:48:32.743Z,15.38
2022-08-27T12:51:05.781Z,16.29
2022-08-27T12:53:44.686Z,15.97
2022-08-27T12:56:45.886Z,15.43
2022-08-27T12:59:29.456Z,15.18
2022-08-27T13:02:13.696Z,15.92
2022-08-27T13:04:45.339Z,16.52
2022-08-27T13:07:15.715Z,15.97
2022-08-27T13:09:45.676Z,16.16
2022-08-27T13:12:19.912Z,16.09
2022-08-27T13:14:57.086Z,16.15
2022-08-27T13:17:27.725Z,16.00
2022-08-27T13:20:00.988Z,16.02
2022-08-27T13:22:41.019Z,15.90
2022-08-27T13:25:24.031Z,15.72
2022-08-27T13:27:59.768Z,16.28
2022-08-27T13:30:35.597Z,16.00
2022-08-27T13:33:09.161Z,15.77
2022-08-27T13:35:42.825Z,15.96
2022-08-27T13:38:12.818Z,16.57
2022-08-27T13:40:55.066Z,16.45
2022-08-27T13:43:33.910Z,16.16
2022-08-27T13:46:07.502Z,17.07
2022-08-27T13:48:41.600Z,17.65
2022-08-27T13:51:15.835Z,17.25
2022-08-27T13:54:09.519Z,17.18
2022-08-27T13:56:43.456Z,17.35
2022-08-27T13:59:26.038Z,17.61
2022-08-27T14:02:01.236Z,18.17
2022-08-27T14:04:40.623Z,18.03
2022-08-27T14:07:15.623Z,17.37
2022-08-27T14:09:54.601Z,17.90
2022-08-27T14:12:33.377Z,17.97
2022-08-27T14:15:21.968Z,17.80
2022-08-27T14:17:52.165Z,17.94
2022-08-27T14:20:22.952Z,17.78
2022-08-27T14:22:54.396Z,18.58
2022-08-27T14:25:24.773Z,18.58
2022-08-27T14:27:57.865Z,18.29
2022-08-27T14:30:30.157Z,18.49
2022-08-27T14:33:02.608Z,18.86
2022-08-27T14:35:35.213Z,18.74
2022-08-27T14:38:14.872Z,18.52
2022-08-27T14:40:46.116Z,18.95
2022-08-27T14:43:21.046Z,18.48
2022-08-27T14:45:53.662Z,18.63
2022-08-27T14:48:29.159Z,19.07
2022-08-27T14:51:00.461Z,18.90
2022-08-27T14:53:32.093Z,19.15
2022-08-27T14:56:02.348Z,19.18
2022-08-27T14:58:32.371Z,18.90
2022-08-27T15:01:04.575Z,19.30
2022-08-27T15:03:35.895Z,19.17
2022-08-27T15:06:05.301Z,19.47
2022-08-27T15:08:36.574Z,19.59
2022-08-27T15:11:06.764Z,20.01
2022-08-27T15:13:38.514Z,19.86
2022-08-27T15:16:10.247Z,19.95
2022-08-27T15:18:40.430Z,20.22
2022-08-27T15:21:10.343Z,20.74
2022-08-27T15:23:41.239Z,20.57
2022-08-27T15:26:10.884Z,20.71
2022-08-27T15:28:43.676Z,20.90
2022-08-27T15:31:15.588Z,21.29
2022-08-27T15:33:47.254Z,21.65
2022-08-27T15:36:18.316Z,21.37
2022-08-27T15:38:54.716Z,21.95
2022-08-27T15:41:29.105Z,22.49
2022-08-27T15:44:00.877Z,22.10
2022-08-27T15:46:31.399Z,21.96
2022-08-27T15:49:01.539Z,21.23
2022-08-27T15:51:35.017Z,21.65
2022-08-27T15:54:06.406Z,22.21
2022-08-27T15:56:39.174Z,21.63
2022-08-27T15:59:10.395Z,21.52
2022-08-27T16:01:41.402Z,22.03
2022-08-27T16:04:12.621Z,21.32
2022-08-27T16:06:42.622Z,21.86
2022-08-27T16:09:14.305Z,22.02
2022-08-27T16:11:45.718Z,23.09
2022-08-27T16:14:15.920Z,22.80
2022-08-27T16:16:49.037Z,23.00
2022-08-27T16:19:20.608Z,23.21
2022-08-27T16:21:52.500Z,23.91
2022-08-27T16:24:23.749Z,23.49
2022-08-27T16:26:52.721Z,22.65
2022-08-27T16:29:25.078Z,24.23
2022-08-27T16:32:01.020Z,24.24
2022-08-27T16:34:32.119Z,23.33
2022-08-27T16:37:02.282Z,24.07
2022-08-27T16:39:37.413Z,24.28
2022-08-27T16:42:10.939Z,24.22
2022-08-27T16:44:42.183Z,24.60
2022-08-27T16:47:14.428Z,23.95
2022-08-27T16:50:03.251Z,24.65
2022-08-27T16:52:33.452Z,25.29
2022-08-27T16:55:04.919Z,24.80
2022-08-27T16:57:34.843Z,26.06
2022-08-27T17:00:06.335Z,25.23
2022-08-27T17:02:38.173Z,26.06
2022-08-27T17:05:33.495Z,25.42
2022-08-27T17:08:02.461Z,26.21
2022-08-27T17:10:37.205Z,25.49
2022-08-27T17:13:08.603Z,25.65
2022-08-27T17:15:39.824Z,25.45
2022-08-27T17:18:10.493Z,25.86
2022-08-27T17:20:43.187Z,25.20
2022-08-27T17:23:21.714Z,25.50
2022-08-27T17:25:53.717Z,25.14
2022-08-27T17:28:24.509Z,24.54
2022-08-27T17:30:57.633Z,25.27
2022-08-27T17:33:31.769Z,25.42
2022-08-27T17:36:02.613Z,25.03
2022-08-27T17:38:38.448Z,25.13
2022-08-27T17:41:13.769Z,24.95
2022-08-27T17:43:44.116Z,25.13
2022-08-27T17:46:13.977Z,25.11
2022-08-27T17:48:44.760Z,25.50
2022-08-27T17:51:15.206Z,25.32
2022-08-27T17:53:48.849Z,25.31
2022-08-27T17:56:24.385Z,26.02
2022-08-27T17:58:57.924Z,25.67
2022-08-27T18:01:32.241Z,26.61
2022-08-27T18:04:07.633Z,25.46
2022-08-27T18:06:41.018Z,26.16
2022-08-27T18:09:12.166Z,26.21
2022-08-27T18:11:46.492Z,26.04
2022-08-27T18:14:18.626Z,26.53
2022-08-27T18:16:49.692Z,26.39
2022-08-27T18:19:19.124Z,26.20
2022-08-27T18:21:49.598Z,26.66
2022-08-27T18:24:19.925Z,25.77
2022-08-27T18:26:51.274Z,26.32
2022-08-27T18:29:21.539Z,26.76
2022-08-27T18:31:51.137Z,26.01
2022-08-27T18:34:21.628Z,26.31
2022-08-27T18:36:51.263Z,26.56
2022-08-27T18:39:25.834Z,26.58
2022-08-27T18:41:59.220Z,26.63
2022-08-27T18:44:28.752Z,26.59
2022-08-27T18:46:58.087Z,26.86
2022-08-27T18:49:28.376Z,26.88
2022-08-27T18:51:58.667Z,27.38
2022-08-27T18:54:28.812Z,26.68
2022-08-27T18:56:59.717Z,26.84
2022-08-27T18:59:30.259Z,26.71
2022-08-27T19:01:59.823Z,25.68
2022-08-27T19:04:34.040Z,26.05
2022-08-27T19:07:05.183Z,25.87
2022-08-27T19:09:35.514Z,27.16
2022-08-27T19:12:07.966Z,26.57
2022-08-27T19:14:39.049Z,26.67
2022-08-27T19:17:10.868Z,27.11
2022-08-27T19:19:41.620Z,26.89
2022-08-27T19:22:11.288Z,26.46
2022-08-27T19:24:41.633Z,26.44
2022-08-27T19:27:12.867Z,27.47
2022-08-27T19:29:42.255Z,26.02
2022-08-27T19:32:11.738Z,27.06
2022-08-27T19:34:41.860Z,27.13
2022-08-27T19:37:15.996Z,27.51
2022-08-27T19:39:46.839Z,27.83
2022-08-27T19:42:18.134Z,27.34
2022-08-27T19:44:48.313Z,26.89
2022-08-27T19:47:21.579Z,27.72
2022-08-27T19:49:53.237Z,27.73
2022-08-27T19:52:24.510Z,28.14
2022-08-27T19:55:13.119Z,27.25
2022-08-27T19:57:47.174Z,26.84
2022-08-27T20:00:20.409Z,27.53
2022-08-27T20:02:51.102Z,27.54
2022-08-27T20:05:23.039Z,27.12
2022-08-27T20:07:54.687Z,27.83
2022-08-27T20:10:33.316Z,28.07
2022-08-27T20:13:08.494Z,27.98
2022-08-27T20:15:39.444Z,27.83
2022-08-27T20:18:19.142Z,28.00
2022-08-27T20:20:57.352Z,27.98
2022-08-27T20:23:32.058Z,27.81
2022-08-27T20:26:02.695Z,27.76
2022-08-27T20:28:40.412Z,28.11
2022-08-27T20:31:10.466Z,28.26
2022-08-27T20:33:40.910Z,28.41
2022-08-27T20:36:11.764Z,28.03
2022-08-27T20:38:41.929Z,28.06
2022-08-27T20:41:13.450Z,27.80
2022-08-27T20:43:47.767Z,28.17
2022-08-27T20:46:26.085Z,28.27
2022-08-27T20:48:56.725Z,28.31
2022-08-27T20:51:27.793Z,28.67
2022-08-27T20:53:59.534Z,28.75
2022-08-27T20:56:33.244Z,28.77
2022-08-27T20:59:23.758Z,28.57
2022-08-27T21:01:54.537Z,28.22
2022-08-27T21:04:26.028Z,28.35
2022-08-27T21:06:55.884Z,28.04
2022-08-27T21:09:26.825Z,28.40
2022-08-27T21:11:58.031Z,28.46
2022-08-27T21:14:30.901Z,28.44
2022-08-27T21:17:02.531Z,28.66
2022-08-27T21:19:33.978Z,28.63
2022-08-27T21:22:06.811Z,28.84
2022-08-27T21:24:36.853Z,28.26
2022-08-27T21:27:07.913Z,28.32
2022-08-27T21:29:39.174Z,28.21
2022-08-27T21:32:09.795Z,28.63
2022-08-27T21:34:39.448Z,28.67
2022-08-27T21:37:09.254Z,29.01
2022-08-27T21:39:40.825Z,28.61
2022-08-27T21:42:11.054Z,29.18
2022-08-27T21:44:41.869Z,28.93
2022-08-27T21:47:11.515Z,29.13
2022-08-27T21:49:41.189Z,28.98
2022-08-27T21:52:11.026Z,29.13
2022-08-27T21:54:42.755Z,29.11
2022-08-27T21:57:15.769Z,29.15
2022-08-27T21:59:48.347Z,29.53
2022-08-27T22:02:39.437Z,29.71
2022-08-27T22:05:12.705Z,29.84
2022-08-27T22:07:42.179Z,29.46
2022-08-27T22:10:11.736Z,29.65
2022-08-27T22:12:41.557Z,29.76
2022-08-27T22:15:12.900Z,29.98
2022-08-27T22:17:42.304Z,29.83
2022-08-27T22:20:12.314Z,29.80
2022-08-27T22:22:41.784Z,30.02
2022-08-27T22:25:11.721Z,29.90
2022-08-27T22:27:41.575Z,29.86
2022-08-27T22:30:14.681Z,29.86
2022-08-27T22:32:44.703Z,29.76
2022-08-27T22:35:17.127Z,30.27
2022-08-27T22:37:48.679Z,29.76
2022-08-27T22:40:21.769Z,29.87
2022-08-27T22:42:52.947Z,29.93
2022-08-27T22:45:24.704Z,29.66
2022-08-27T22:47:54.024Z,29.82
2022-08-27T22:50:24.645Z,29.79
2022-08-27T22:52:58.172Z,29.67
2022-08-27T22:55:27.816Z,30.01
2022-08-27T22:57:57.955Z,29.70
2022-08-27T23:00:31.029Z,29.39
2022-08-27T23:03:01.104Z,29.44
2022-08-27T23:05:41.891Z,29.58
2022-08-27T23:08:14.226Z,29.41
2022-08-27T23:10:44.564Z,29.54
2022-08-27T23:13:14.435Z,29.93
2022-08-27T23:15:45.123Z,29.46
2022-08-27T23:18:15.266Z,29.47
2022-08-27T23:20:44.898Z,29.32
2022-08-27T23:23:14.016Z,29.44
2022-08-27T23:26:01.947Z,29.86
2022-08-27T23:28:30.955Z,29.88
2022-08-27T23:31:02.611Z,29.77
2022-08-27T23:33:32.023Z,29.78
2022-08-27T23:36:01.416Z,29.81
2022-08-27T23:38:30.973Z,30.66
2022-08-27T23:41:00.308Z,30.08
2022-08-27T23:43:32.270Z,30.02
2022-08-27T23:46:02.955Z,30.16
2022-08-27T23:48:32.177Z,29.97
2022-08-27T23:51:01.534Z,30.31
2022-08-27T23:53:32.280Z,30.43
2022-08-27T23:56:01.344Z,30.34
2022-08-27T23:58:30.855Z,30.54
